sensor_id;sensor_type;location;lat;lon;timestamp;P1;durP1;ratioP1;P2;durP2;ratioP2
28802;SDS011;15949;55.656;37.422;2023-04-29T00:03:53;6.18;;;5.57;;
28802;SDS011;15949;55.656;37.422;2023-04-29T00:08:59;6.10;;;5.45;;
28802;SDS011;15949;55.656;37.422;2023-04-29T00:14:05;4.65;;;4.07;;
28802;SDS011;15949;55.656;37.422;2023-04-29T00:19:10;4.07;;;3.30;;
28802;SDS011;15949;55.656;37.422;2023-04-29T00:24:16;3.63;;;3.30;;
28802;SDS011;15949;55.656;37.422;2023-04-29T00:29:21;4.82;;;3.20;;
28802;SDS011;15949;55.656;37.422;2023-04-29T00:34:27;3.92;;;2.92;;
28802;SDS011;15949;55.656;37.422;2023-04-29T00:39:33;4.13;;;3.58;;
28802;SDS011;15949;55.656;37.422;2023-04-29T00:44:39;3.85;;;3.33;;
28802;SDS011;15949;55.656;37.422;2023-04-29T00:49:45;5.25;;;3.45;;
28802;SDS011;15949;55.656;37.422;2023-04-29T00:54:50;5.30;;;4.75;;
28802;SDS011;15949;55.656;37.422;2023-04-29T00:59:56;5.80;;;5.10;;
28802;SDS011;15949;55.656;37.422;2023-04-29T01:05:03;6.28;;;5.30;;
28802;SDS011;15949;55.656;37.422;2023-04-29T01:10:09;3.67;;;3.28;;
28802;SDS011;15949;55.656;37.422;2023-04-29T01:15:21;3.88;;;3.47;;
28802;SDS011;15949;55.656;37.422;2023-04-29T01:20:30;5.80;;;3.80;;
28802;SDS011;15949;55.656;37.422;2023-04-29T01:25:37;4.93;;;3.05;;
28802;SDS011;15949;55.656;37.422;2023-04-29T01:30:50;4.57;;;3.53;;
28802;SDS011;15949;55.656;37.422;2023-04-29T01:36:07;6.70;;;3.90;;
28802;SDS011;15949;55.656;37.422;2023-04-29T01:46:49;6.20;;;4.05;;
28802;SDS011;15949;55.656;37.422;2023-04-29T01:51:56;7.15;;;4.32;;
28802;SDS011;15949;55.656;37.422;2023-04-29T01:57:02;5.50;;;4.40;;
28802;SDS011;15949;55.656;37.422;2023-04-29T02:02:07;5.35;;;3.58;;
28802;SDS011;15949;55.656;37.422;2023-04-29T02:07:14;5.47;;;3.60;;
28802;SDS011;15949;55.656;37.422;2023-04-29T02:12:20;5.97;;;3.55;;
28802;SDS011;15949;55.656;37.422;2023-04-29T02:17:25;6.32;;;4.35;;
28802;SDS011;15949;55.656;37.422;2023-04-29T02:22:31;4.97;;;4.00;;
28802;SDS011;15949;55.656;37.422;2023-04-29T02:27:36;5.82;;;4.22;;
28802;SDS011;15949;55.656;37.422;2023-04-29T02:32:42;5.22;;;4.65;;
28802;SDS011;15949;55.656;37.422;2023-04-29T02:37:47;4.18;;;3.78;;
28802;SDS011;15949;55.656;37.422;2023-04-29T02:42:53;4.82;;;3.72;;
28802;SDS011;15949;55.656;37.422;2023-04-29T02:47:59;4.82;;;3.50;;
28802;SDS011;15949;55.656;37.422;2023-04-29T02:53:04;5.63;;;4.13;;
28802;SDS011;15949;55.656;37.422;2023-04-29T02:58:10;5.75;;;3.90;;
28802;SDS011;15949;55.656;37.422;2023-04-29T03:03:15;4.82;;;4.10;;
28802;SDS011;15949;55.656;37.422;2023-04-29T03:08:21;6.63;;;4.13;;
28802;SDS011;15949;55.656;37.422;2023-04-29T03:13:27;3.70;;;3.40;;
28802;SDS011;15949;55.656;37.422;2023-04-29T03:18:32;3.92;;;1.90;;
28802;SDS011;15949;55.656;37.422;2023-04-29T03:23:38;3.85;;;2.50;;
28802;SDS011;15949;55.656;37.422;2023-04-29T03:28:44;3.15;;;2.38;;
28802;SDS011;15949;55.656;37.422;2023-04-29T03:33:49;3.25;;;2.40;;
28802;SDS011;15949;55.656;37.422;2023-04-29T03:38:57;5.07;;;2.40;;
28802;SDS011;15949;55.656;37.422;2023-04-29T03:44:03;4.05;;;3.42;;
28802;SDS011;15949;55.656;37.422;2023-04-29T03:49:09;4.38;;;3.80;;
28802;SDS011;15949;55.656;37.422;2023-04-29T03:54:15;4.55;;;4.00;;
28802;SDS011;15949;55.656;37.422;2023-04-29T03:59:20;3.80;;;2.90;;
28802;SDS011;15949;55.656;37.422;2023-04-29T04:04:26;2.97;;;2.33;;
28802;SDS011;15949;55.656;37.422;2023-04-29T04:09:32;3.38;;;2.70;;
28802;SDS011;15949;55.656;37.422;2023-04-29T04:14:37;3.92;;;2.80;;
28802;SDS011;15949;55.656;37.422;2023-04-29T04:19:43;3.72;;;2.85;;
28802;SDS011;15949;55.656;37.422;2023-04-29T04:24:49;5.25;;;2.80;;
28802;SDS011;15949;55.656;37.422;2023-04-29T04:29:54;3.83;;;2.85;;
28802;SDS011;15949;55.656;37.422;2023-04-29T04:35:00;3.47;;;2.83;;
28802;SDS011;15949;55.656;37.422;2023-04-29T04:40:06;3.83;;;2.88;;
28802;SDS011;15949;55.656;37.422;2023-04-29T04:45:12;7.65;;;3.78;;
28802;SDS011;15949;55.656;37.422;2023-04-29T04:50:19;7.15;;;3.40;;
28802;SDS011;15949;55.656;37.422;2023-04-29T04:55:25;5.45;;;3.60;;
28802;SDS011;15949;55.656;37.422;2023-04-29T05:00:30;5.53;;;3.85;;
28802;SDS011;15949;55.656;37.422;2023-04-29T05:05:36;6.00;;;3.90;;
28802;SDS011;15949;55.656;37.422;2023-04-29T05:10:42;4.97;;;3.70;;
28802;SDS011;15949;55.656;37.422;2023-04-29T05:15:48;7.28;;;4.47;;
28802;SDS011;15949;55.656;37.422;2023-04-29T05:20:54;7.68;;;4.93;;
28802;SDS011;15949;55.656;37.422;2023-04-29T05:26:00;7.03;;;5.03;;
28802;SDS011;15949;55.656;37.422;2023-04-29T05:31:05;5.53;;;4.07;;
28802;SDS011;15949;55.656;37.422;2023-04-29T05:36:11;6.70;;;4.32;;
28802;SDS011;15949;55.656;37.422;2023-04-29T05:41:17;5.22;;;4.45;;
28802;SDS011;15949;55.656;37.422;2023-04-29T05:46:22;7.07;;;4.28;;
28802;SDS011;15949;55.656;37.422;2023-04-29T05:51:28;6.32;;;4.57;;
28802;SDS011;15949;55.656;37.422;2023-04-29T05:56:33;7.38;;;4.90;;
28802;SDS011;15949;55.656;37.422;2023-04-29T06:01:39;6.45;;;4.65;;
28802;SDS011;15949;55.656;37.422;2023-04-29T06:06:44;8.38;;;5.05;;
28802;SDS011;15949;55.656;37.422;2023-04-29T06:11:50;5.50;;;4.32;;
28802;SDS011;15949;55.656;37.422;2023-04-29T06:16:56;6.38;;;4.45;;
28802;SDS011;15949;55.656;37.422;2023-04-29T06:22:02;5.93;;;4.63;;
28802;SDS011;15949;55.656;37.422;2023-04-29T06:27:07;5.65;;;4.40;;
28802;SDS011;15949;55.656;37.422;2023-04-29T06:32:13;9.70;;;5.13;;
28802;SDS011;15949;55.656;37.422;2023-04-29T06:37:20;7.35;;;4.50;;
28802;SDS011;15949;55.656;37.422;2023-04-29T06:42:25;5.65;;;4.13;;
28802;SDS011;15949;55.656;37.422;2023-04-29T06:47:31;4.88;;;4.38;;
28802;SDS011;15949;55.656;37.422;2023-04-29T06:52:37;9.63;;;4.55;;
28802;SDS011;15949;55.656;37.422;2023-04-29T06:57:42;5.07;;;3.90;;
28802;SDS011;15949;55.656;37.422;2023-04-29T07:02:48;5.93;;;3.78;;
28802;SDS011;15949;55.656;37.422;2023-04-29T07:07:53;4.75;;;3.85;;
28802;SDS011;15949;55.656;37.422;2023-04-29T07:12:59;6.75;;;3.72;;
28802;SDS011;15949;55.656;37.422;2023-04-29T07:18:05;4.93;;;4.00;;
28802;SDS011;15949;55.656;37.422;2023-04-29T07:23:10;5.13;;;3.67;;
28802;SDS011;15949;55.656;37.422;2023-04-29T07:28:16;4.75;;;3.47;;
28802;SDS011;15949;55.656;37.422;2023-04-29T07:33:22;5.35;;;3.72;;
28802;SDS011;15949;55.656;37.422;2023-04-29T07:38:28;5.05;;;3.70;;
28802;SDS011;15949;55.656;37.422;2023-04-29T07:43:34;7.72;;;3.35;;
28802;SDS011;15949;55.656;37.422;2023-04-29T07:48:39;4.68;;;3.50;;
28802;SDS011;15949;55.656;37.422;2023-04-29T07:53:45;5.28;;;3.20;;
28802;SDS011;15949;55.656;37.422;2023-04-29T07:58:50;4.68;;;3.50;;
28802;SDS011;15949;55.656;37.422;2023-04-29T08:03:56;4.18;;;3.05;;
28802;SDS011;15949;55.656;37.422;2023-04-29T08:09:02;6.32;;;2.85;;
28802;SDS011;15949;55.656;37.422;2023-04-29T08:14:07;11.13;;;3.22;;
28802;SDS011;15949;55.656;37.422;2023-04-29T08:19:13;6.35;;;2.75;;
28802;SDS011;15949;55.656;37.422;2023-04-29T08:24:18;6.38;;;2.90;;
28802;SDS011;15949;55.656;37.422;2023-04-29T08:29:26;3.25;;;2.50;;
28802;SDS011;15949;55.656;37.422;2023-04-29T08:34:32;7.70;;;2.95;;
28802;SDS011;15949;55.656;37.422;2023-04-29T08:39:38;3.95;;;2.65;;
28802;SDS011;15949;55.656;37.422;2023-04-29T08:44:43;4.93;;;2.28;;
28802;SDS011;15949;55.656;37.422;2023-04-29T08:49:49;6.30;;;2.72;;
28802;SDS011;15949;55.656;37.422;2023-04-29T08:54:55;5.00;;;2.30;;
28802;SDS011;15949;55.656;37.422;2023-04-29T09:00:01;5.60;;;2.20;;
28802;SDS011;15949;55.656;37.422;2023-04-29T09:05:08;9.85;;;2.88;;
28802;SDS011;15949;55.656;37.422;2023-04-29T09:10:15;6.80;;;2.70;;
28802;SDS011;15949;55.656;37.422;2023-04-29T09:15:21;7.20;;;2.50;;
28802;SDS011;15949;55.656;37.422;2023-04-29T09:20:27;6.32;;;2.30;;
28802;SDS011;15949;55.656;37.422;2023-04-29T09:25:34;3.22;;;1.95;;
28802;SDS011;15949;55.656;37.422;2023-04-29T09:30:46;2.33;;;1.60;;
28802;SDS011;15949;55.656;37.422;2023-04-29T09:35:52;5.28;;;1.77;;
28802;SDS011;15949;55.656;37.422;2023-04-29T09:40:58;7.28;;;2.60;;
28802;SDS011;15949;55.656;37.422;2023-04-29T09:46:03;6.10;;;2.28;;
28802;SDS011;15949;55.656;37.422;2023-04-29T09:51:09;6.10;;;2.78;;
28802;SDS011;15949;55.656;37.422;2023-04-29T09:56:15;5.43;;;2.78;;
28802;SDS011;15949;55.656;37.422;2023-04-29T10:01:21;5.93;;;2.40;;
28802;SDS011;15949;55.656;37.422;2023-04-29T10:06:27;2.33;;;1.73;;
28802;SDS011;15949;55.656;37.422;2023-04-29T10:11:33;3.40;;;1.95;;
28802;SDS011;15949;55.656;37.422;2023-04-29T10:16:44;5.18;;;2.08;;
28802;SDS011;15949;55.656;37.422;2023-04-29T10:21:52;16.30;;;2.67;;
28802;SDS011;15949;55.656;37.422;2023-04-29T10:27:02;7.38;;;2.72;;
28802;SDS011;15949;55.656;37.422;2023-04-29T10:32:12;4.25;;;2.42;;
28802;SDS011;15949;55.656;37.422;2023-04-29T10:37:19;4.70;;;2.42;;
28802;SDS011;15949;55.656;37.422;2023-04-29T10:42:29;5.18;;;1.80;;
28802;SDS011;15949;55.656;37.422;2023-04-29T10:53:10;6.65;;;1.77;;
28802;SDS011;15949;55.656;37.422;2023-04-29T11:03:45;3.78;;;1.83;;
28802;SDS011;15949;55.656;37.422;2023-04-29T11:14:28;7.53;;;2.20;;
28802;SDS011;15949;55.656;37.422;2023-04-29T11:19:36;4.47;;;2.10;;
28802;SDS011;15949;55.656;37.422;2023-04-29T11:24:59;7.47;;;2.35;;
28802;SDS011;15949;55.656;37.422;2023-04-29T11:30:11;6.03;;;1.98;;
28802;SDS011;15949;55.656;37.422;2023-04-29T11:35:17;6.13;;;2.38;;
28802;SDS011;15949;55.656;37.422;2023-04-29T11:40:26;3.78;;;2.30;;
28802;SDS011;15949;55.656;37.422;2023-04-29T11:45:33;6.45;;;1.75;;
28802;SDS011;15949;55.656;37.422;2023-04-29T11:50:40;4.13;;;1.52;;
28802;SDS011;15949;55.656;37.422;2023-04-29T11:55:46;4.68;;;1.85;;
28802;SDS011;15949;55.656;37.422;2023-04-29T12:00:52;4.93;;;1.55;;
28802;SDS011;15949;55.656;37.422;2023-04-29T12:05:58;2.60;;;1.50;;
28802;SDS011;15949;55.656;37.422;2023-04-29T12:11:05;3.55;;;1.60;;
28802;SDS011;15949;55.656;37.422;2023-04-29T12:16:11;2.90;;;1.48;;
28802;SDS011;15949;55.656;37.422;2023-04-29T12:21:17;4.88;;;1.60;;
28802;SDS011;15949;55.656;37.422;2023-04-29T12:26:23;4.57;;;2.30;;
28802;SDS011;15949;55.656;37.422;2023-04-29T12:31:32;3.35;;;1.90;;
28802;SDS011;15949;55.656;37.422;2023-04-29T12:36:41;3.43;;;1.53;;
28802;SDS011;15949;55.656;37.422;2023-04-29T12:41:47;4.63;;;1.40;;
28802;SDS011;15949;55.656;37.422;2023-04-29T12:46:52;5.60;;;1.35;;
28802;SDS011;15949;55.656;37.422;2023-04-29T12:51:59;6.47;;;1.30;;
28802;SDS011;15949;55.656;37.422;2023-04-29T12:57:05;2.90;;;1.20;;
28802;SDS011;15949;55.656;37.422;2023-04-29T13:02:11;3.25;;;1.58;;
28802;SDS011;15949;55.656;37.422;2023-04-29T13:07:16;1.80;;;1.20;;
28802;SDS011;15949;55.656;37.422;2023-04-29T13:12:23;3.25;;;1.60;;
28802;SDS011;15949;55.656;37.422;2023-04-29T13:17:28;5.65;;;1.40;;
28802;SDS011;15949;55.656;37.422;2023-04-29T13:22:34;2.22;;;1.30;;
28802;SDS011;15949;55.656;37.422;2023-04-29T13:27:41;4.00;;;1.38;;
28802;SDS011;15949;55.656;37.422;2023-04-29T13:32:48;5.18;;;1.35;;
28802;SDS011;15949;55.656;37.422;2023-04-29T13:37:53;3.50;;;1.33;;
28802;SDS011;15949;55.656;37.422;2023-04-29T13:42:59;5.70;;;2.10;;
28802;SDS011;15949;55.656;37.422;2023-04-29T13:48:04;4.93;;;1.40;;
28802;SDS011;15949;55.656;37.422;2023-04-29T13:53:10;4.95;;;1.70;;
28802;SDS011;15949;55.656;37.422;2023-04-29T13:58:16;3.85;;;2.30;;
28802;SDS011;15949;55.656;37.422;2023-04-29T14:03:22;4.65;;;1.73;;
28802;SDS011;15949;55.656;37.422;2023-04-29T14:08:28;4.75;;;2.25;;
28802;SDS011;15949;55.656;37.422;2023-04-29T14:13:33;4.35;;;2.20;;
28802;SDS011;15949;55.656;37.422;2023-04-29T14:18:39;3.38;;;2.03;;
28802;SDS011;15949;55.656;37.422;2023-04-29T14:23:44;4.32;;;1.42;;
28802;SDS011;15949;55.656;37.422;2023-04-29T14:28:50;3.55;;;1.73;;
28802;SDS011;15949;55.656;37.422;2023-04-29T14:34:01;4.50;;;1.17;;
28802;SDS011;15949;55.656;37.422;2023-04-29T14:39:07;7.45;;;1.40;;
28802;SDS011;15949;55.656;37.422;2023-04-29T14:44:13;5.07;;;1.73;;
28802;SDS011;15949;55.656;37.422;2023-04-29T14:49:19;8.95;;;1.80;;
28802;SDS011;15949;55.656;37.422;2023-04-29T14:54:25;3.13;;;1.20;;
28802;SDS011;15949;55.656;37.422;2023-04-29T14:59:31;3.35;;;1.40;;
28802;SDS011;15949;55.656;37.422;2023-04-29T15:04:37;5.90;;;1.30;;
28802;SDS011;15949;55.656;37.422;2023-04-29T15:09:47;2.85;;;1.70;;
28802;SDS011;15949;55.656;37.422;2023-04-29T15:14:52;4.50;;;2.05;;
28802;SDS011;15949;55.656;37.422;2023-04-29T15:19:58;4.57;;;2.13;;
28802;SDS011;15949;55.656;37.422;2023-04-29T15:25:04;2.83;;;1.30;;
28802;SDS011;15949;55.656;37.422;2023-04-29T15:30:10;4.60;;;1.55;;
28802;SDS011;15949;55.656;37.422;2023-04-29T15:35:16;4.68;;;1.60;;
28802;SDS011;15949;55.656;37.422;2023-04-29T15:40:22;5.32;;;1.85;;
28802;SDS011;15949;55.656;37.422;2023-04-29T15:45:27;3.60;;;1.60;;
28802;SDS011;15949;55.656;37.422;2023-04-29T15:50:33;4.13;;;1.40;;
28802;SDS011;15949;55.656;37.422;2023-04-29T15:55:39;6.30;;;1.80;;
28802;SDS011;15949;55.656;37.422;2023-04-29T16:00:44;5.43;;;1.70;;
28802;SDS011;15949;55.656;37.422;2023-04-29T16:05:50;7.30;;;2.20;;
28802;SDS011;15949;55.656;37.422;2023-04-29T16:10:56;5.35;;;2.65;;
28802;SDS011;15949;55.656;37.422;2023-04-29T16:16:02;10.15;;;3.17;;
28802;SDS011;15949;55.656;37.422;2023-04-29T16:21:07;9.15;;;3.17;;
28802;SDS011;15949;55.656;37.422;2023-04-29T16:26:13;7.95;;;3.80;;
28802;SDS011;15949;55.656;37.422;2023-04-29T16:31:19;13.52;;;5.25;;
28802;SDS011;15949;55.656;37.422;2023-04-29T16:36:24;16.80;;;7.22;;
28802;SDS011;15949;55.656;37.422;2023-04-29T16:41:31;22.00;;;10.32;;
28802;SDS011;15949;55.656;37.422;2023-04-29T16:46:36;13.35;;;5.75;;
28802;SDS011;15949;55.656;37.422;2023-04-29T16:51:42;12.65;;;3.80;;
28802;SDS011;15949;55.656;37.422;2023-04-29T16:56:48;11.57;;;4.00;;
28802;SDS011;15949;55.656;37.422;2023-04-29T17:01:53;20.88;;;5.47;;
28802;SDS011;15949;55.656;37.422;2023-04-29T17:06:59;13.98;;;5.35;;
28802;SDS011;15949;55.656;37.422;2023-04-29T17:12:05;18.55;;;4.43;;
28802;SDS011;15949;55.656;37.422;2023-04-29T17:17:12;21.52;;;6.80;;
28802;SDS011;15949;55.656;37.422;2023-04-29T17:22:17;19.13;;;7.53;;
28802;SDS011;15949;55.656;37.422;2023-04-29T17:27:23;35.53;;;18.80;;
28802;SDS011;15949;55.656;37.422;2023-04-29T17:32:29;51.80;;;28.33;;
28802;SDS011;15949;55.656;37.422;2023-04-29T17:37:43;61.67;;;36.58;;
28802;SDS011;15949;55.656;37.422;2023-04-29T17:42:48;67.82;;;36.40;;
28802;SDS011;15949;55.656;37.422;2023-04-29T17:47:54;40.22;;;25.42;;
28802;SDS011;15949;55.656;37.422;2023-04-29T17:52:59;32.38;;;19.10;;
28802;SDS011;15949;55.656;37.422;2023-04-29T17:58:05;73.28;;;34.63;;
28802;SDS011;15949;55.656;37.422;2023-04-29T18:03:11;89.47;;;45.78;;
28802;SDS011;15949;55.656;37.422;2023-04-29T18:08:17;104.82;;;60.10;;
28802;SDS011;15949;55.656;37.422;2023-04-29T18:13:22;66.60;;;36.20;;
28802;SDS011;15949;55.656;37.422;2023-04-29T18:18:28;48.45;;;26.85;;
28802;SDS011;15949;55.656;37.422;2023-04-29T18:23:34;55.03;;;21.45;;
28802;SDS011;15949;55.656;37.422;2023-04-29T18:28:40;45.42;;;23.45;;
28802;SDS011;15949;55.656;37.422;2023-04-29T18:33:45;43.90;;;26.33;;
28802;SDS011;15949;55.656;37.422;2023-04-29T18:38:51;42.30;;;26.88;;
28802;SDS011;15949;55.656;37.422;2023-04-29T18:43:56;42.15;;;22.85;;
28802;SDS011;15949;55.656;37.422;2023-04-29T18:49:02;47.08;;;26.48;;
28802;SDS011;15949;55.656;37.422;2023-04-29T18:54:07;60.38;;;27.75;;
28802;SDS011;15949;55.656;37.422;2023-04-29T18:59:13;45.25;;;21.38;;
28802;SDS011;15949;55.656;37.422;2023-04-29T19:09:28;48.10;;;21.17;;
28802;SDS011;15949;55.656;37.422;2023-04-29T19:14:37;45.30;;;20.45;;
28802;SDS011;15949;55.656;37.422;2023-04-29T19:19:43;44.95;;;19.30;;
28802;SDS011;15949;55.656;37.422;2023-04-29T19:24:48;51.90;;;22.00;;
28802;SDS011;15949;55.656;37.422;2023-04-29T19:29:54;45.33;;;22.42;;
28802;SDS011;15949;55.656;37.422;2023-04-29T19:35:00;47.10;;;20.55;;
28802;SDS011;15949;55.656;37.422;2023-04-29T19:40:06;43.65;;;20.00;;
28802;SDS011;15949;55.656;37.422;2023-04-29T19:45:14;37.70;;;16.93;;
28802;SDS011;15949;55.656;37.422;2023-04-29T19:50:20;41.13;;;19.02;;
28802;SDS011;15949;55.656;37.422;2023-04-29T19:55:26;30.58;;;16.90;;
28802;SDS011;15949;55.656;37.422;2023-04-29T20:00:32;29.55;;;14.45;;
28802;SDS011;15949;55.656;37.422;2023-04-29T20:05:38;29.77;;;14.20;;
28802;SDS011;15949;55.656;37.422;2023-04-29T20:10:45;22.58;;;12.55;;
28802;SDS011;15949;55.656;37.422;2023-04-29T20:15:51;21.08;;;10.73;;
28802;SDS011;15949;55.656;37.422;2023-04-29T20:20:58;20.85;;;10.35;;
28802;SDS011;15949;55.656;37.422;2023-04-29T20:26:03;18.65;;;9.48;;
28802;SDS011;15949;55.656;37.422;2023-04-29T20:31:09;18.25;;;9.50;;
28802;SDS011;15949;55.656;37.422;2023-04-29T20:36:15;23.85;;;9.40;;
28802;SDS011;15949;55.656;37.422;2023-04-29T20:41:21;21.92;;;8.85;;
28802;SDS011;15949;55.656;37.422;2023-04-29T20:46:26;19.38;;;8.40;;
28802;SDS011;15949;55.656;37.422;2023-04-29T20:51:32;16.98;;;7.53;;
28802;SDS011;15949;55.656;37.422;2023-04-29T20:56:38;18.20;;;8.18;;
28802;SDS011;15949;55.656;37.422;2023-04-29T21:01:43;19.33;;;8.55;;
28802;SDS011;15949;55.656;37.422;2023-04-29T21:06:50;15.68;;;7.50;;
28802;SDS011;15949;55.656;37.422;2023-04-29T21:11:56;15.25;;;8.18;;
28802;SDS011;15949;55.656;37.422;2023-04-29T21:17:03;20.90;;;8.95;;
28802;SDS011;15949;55.656;37.422;2023-04-29T21:22:09;18.50;;;9.25;;
28802;SDS011;15949;55.656;37.422;2023-04-29T21:27:14;17.55;;;9.02;;
28802;SDS011;15949;55.656;37.422;2023-04-29T21:32:20;21.13;;;8.98;;
28802;SDS011;15949;55.656;37.422;2023-04-29T21:37:25;23.42;;;9.13;;
28802;SDS011;15949;55.656;37.422;2023-04-29T21:42:32;17.20;;;9.48;;
28802;SDS011;15949;55.656;37.422;2023-04-29T21:47:38;22.35;;;8.82;;
28802;SDS011;15949;55.656;37.422;2023-04-29T21:52:44;22.10;;;9.43;;
28802;SDS011;15949;55.656;37.422;2023-04-29T21:57:50;20.42;;;9.82;;
28802;SDS011;15949;55.656;37.422;2023-04-29T22:02:55;20.05;;;9.13;;
28802;SDS011;15949;55.656;37.422;2023-04-29T22:08:02;17.73;;;9.15;;
28802;SDS011;15949;55.656;37.422;2023-04-29T22:13:08;17.83;;;9.85;;
28802;SDS011;15949;55.656;37.422;2023-04-29T22:18:14;25.60;;;10.75;;
28802;SDS011;15949;55.656;37.422;2023-04-29T22:23:20;20.13;;;9.63;;
28802;SDS011;15949;55.656;37.422;2023-04-29T22:28:26;28.42;;;18.15;;
28802;SDS011;15949;55.656;37.422;2023-04-29T22:33:32;27.40;;;13.00;;
28802;SDS011;15949;55.656;37.422;2023-04-29T22:38:39;22.13;;;11.60;;
28802;SDS011;15949;55.656;37.422;2023-04-29T22:43:44;24.38;;;11.15;;
28802;SDS011;15949;55.656;37.422;2023-04-29T22:48:50;23.00;;;11.02;;
28802;SDS011;15949;55.656;37.422;2023-04-29T22:53:56;23.08;;;10.88;;
28802;SDS011;15949;55.656;37.422;2023-04-29T22:59:01;19.77;;;11.35;;
28802;SDS011;15949;55.656;37.422;2023-04-29T23:04:07;23.50;;;11.95;;
28802;SDS011;15949;55.656;37.422;2023-04-29T23:09:13;28.13;;;13.85;;
28802;SDS011;15949;55.656;37.422;2023-04-29T23:14:19;22.65;;;12.20;;
28802;SDS011;15949;55.656;37.422;2023-04-29T23:19:25;25.60;;;11.43;;
28802;SDS011;15949;55.656;37.422;2023-04-29T23:24:32;19.05;;;9.73;;
28802;SDS011;15949;55.656;37.422;2023-04-29T23:29:39;25.90;;;11.48;;
28802;SDS011;15949;55.656;37.422;2023-04-29T23:34:46;27.50;;;11.38;;
28802;SDS011;15949;55.656;37.422;2023-04-29T23:39:52;20.77;;;11.10;;
28802;SDS011;15949;55.656;37.422;2023-04-29T23:44:57;20.95;;;11.10;;
28802;SDS011;15949;55.656;37.422;2023-04-29T23:50:03;28.23;;;11.65;;
28802;SDS011;15949;55.656;37.422;2023-04-29T23:55:09;25.33;;;12.27;;
